sensor_id;sensor_type;location;lat;lon;timestamp;temperature;humidity
21502;DHT22;27639;48.674;9.242;2023-07-22T00:01:14;19.50;53.90
21502;DHT22;27639;48.674;9.242;2023-07-22T00:03:39;19.50;54.10
21502;DHT22;27639;48.674;9.242;2023-07-22T00:06:06;19.40;54.20
21502;DHT22;27639;48.674;9.242;2023-07-22T00:08:33;19.40;54.20
21502;DHT22;27639;48.674;9.242;2023-07-22T00:10:59;19.40;54.20
21502;DHT22;27639;48.674;9.242;2023-07-22T00:13:25;19.40;53.90
21502;DHT22;27639;48.674;9.242;2023-07-22T00:15:54;19.30;53.80
21502;DHT22;27639;48.674;9.242;2023-07-22T00:18:20;19.30;54.00
21502;DHT22;27639;48.674;9.242;2023-07-22T00:20:46;19.20;54.00
21502;DHT22;27639;48.674;9.242;2023-07-22T00:23:11;19.20;54.00
21502;DHT22;27639;48.674;9.242;2023-07-22T00:25:37;19.10;54.40
21502;DHT22;27639;48.674;9.242;2023-07-22T00:28:03;19.00;54.50
21502;DHT22;27639;48.674;9.242;2023-07-22T00:30:29;18.90;54.60
21502;DHT22;27639;48.674;9.242;2023-07-22T00:32:55;18.90;54.60
21502;DHT22;27639;48.674;9.242;2023-07-22T00:35:21;18.90;54.60
21502;DHT22;27639;48.674;9.242;2023-07-22T00:37:46;18.90;54.60
21502;DHT22;27639;48.674;9.242;2023-07-22T00:40:12;18.90;54.60
21502;DHT22;27639;48.674;9.242;2023-07-22T00:42:38;18.80;54.60
21502;DHT22;27639;48.674;9.242;2023-07-22T00:45:05;18.80;55.00
21502;DHT22;27639;48.674;9.242;2023-07-22T00:47:32;18.60;55.20
21502;DHT22;27639;48.674;9.242;2023-07-22T00:50:00;18.70;55.40
21502;DHT22;27639;48.674;9.242;2023-07-22T00:52:26;18.60;55.40
21502;DHT22;27639;48.674;9.242;2023-07-22T00:54:52;18.60;55.50
21502;DHT22;27639;48.674;9.242;2023-07-22T00:57:18;18.60;55.60
21502;DHT22;27639;48.674;9.242;2023-07-22T00:59:44;18.60;55.50
21502;DHT22;27639;48.674;9.242;2023-07-22T01:02:10;18.60;55.60
21502;DHT22;27639;48.674;9.242;2023-07-22T01:04:36;18.50;55.70
21502;DHT22;27639;48.674;9.242;2023-07-22T01:07:03;18.40;55.70
21502;DHT22;27639;48.674;9.242;2023-07-22T01:09:40;18.40;55.90
21502;DHT22;27639;48.674;9.242;2023-07-22T01:12:06;18.50;55.90
21502;DHT22;27639;48.674;9.242;2023-07-22T01:14:42;18.50;56.00
21502;DHT22;27639;48.674;9.242;2023-07-22T01:17:11;18.40;55.90
21502;DHT22;27639;48.674;9.242;2023-07-22T01:19:36;18.40;55.90
21502;DHT22;27639;48.674;9.242;2023-07-22T01:22:06;18.40;55.80
21502;DHT22;27639;48.674;9.242;2023-07-22T01:24:33;18.40;55.90
21502;DHT22;27639;48.674;9.242;2023-07-22T01:26:59;18.40;56.00
21502;DHT22;27639;48.674;9.242;2023-07-22T01:29:25;18.40;56.10
21502;DHT22;27639;48.674;9.242;2023-07-22T01:31:52;18.30;56.10
21502;DHT22;27639;48.674;9.242;2023-07-22T01:34:19;18.30;56.20
21502;DHT22;27639;48.674;9.242;2023-07-22T01:36:46;18.20;56.20
21502;DHT22;27639;48.674;9.242;2023-07-22T01:39:15;18.20;56.30
21502;DHT22;27639;48.674;9.242;2023-07-22T01:41:42;18.20;56.40
21502;DHT22;27639;48.674;9.242;2023-07-22T01:44:07;18.20;57.10
21502;DHT22;27639;48.674;9.242;2023-07-22T01:46:33;18.20;56.40
21502;DHT22;27639;48.674;9.242;2023-07-22T01:49:00;18.20;57.20
21502;DHT22;27639;48.674;9.242;2023-07-22T01:51:27;18.20;56.60
21502;DHT22;27639;48.674;9.242;2023-07-22T01:53:52;18.20;56.40
21502;DHT22;27639;48.674;9.242;2023-07-22T01:56:18;18.20;56.20
21502;DHT22;27639;48.674;9.242;2023-07-22T01:58:45;18.30;56.20
21502;DHT22;27639;48.674;9.242;2023-07-22T02:01:11;18.30;56.30
21502;DHT22;27639;48.674;9.242;2023-07-22T02:03:40;18.20;56.20
21502;DHT22;27639;48.674;9.242;2023-07-22T02:06:06;18.20;56.10
21502;DHT22;27639;48.674;9.242;2023-07-22T02:08:32;18.20;56.20
21502;DHT22;27639;48.674;9.242;2023-07-22T02:11:05;18.20;56.20
21502;DHT22;27639;48.674;9.242;2023-07-22T02:13:32;18.20;56.10
21502;DHT22;27639;48.674;9.242;2023-07-22T02:15:59;18.20;56.20
21502;DHT22;27639;48.674;9.242;2023-07-22T02:18:25;18.10;56.10
21502;DHT22;27639;48.674;9.242;2023-07-22T02:20:50;18.10;56.20
21502;DHT22;27639;48.674;9.242;2023-07-22T02:23:16;18.00;56.30
21502;DHT22;27639;48.674;9.242;2023-07-22T02:25:42;18.00;56.30
21502;DHT22;27639;48.674;9.242;2023-07-22T02:28:07;18.00;56.50
21502;DHT22;27639;48.674;9.242;2023-07-22T02:30:36;18.00;56.60
21502;DHT22;27639;48.674;9.242;2023-07-22T02:33:05;18.00;56.60
21502;DHT22;27639;48.674;9.242;2023-07-22T02:35:30;18.00;56.50
21502;DHT22;27639;48.674;9.242;2023-07-22T02:37:56;18.00;56.30
21502;DHT22;27639;48.674;9.242;2023-07-22T02:40:22;18.00;56.20
21502;DHT22;27639;48.674;9.242;2023-07-22T02:42:47;18.10;56.40
21502;DHT22;27639;48.674;9.242;2023-07-22T02:45:13;18.10;56.20
21502;DHT22;27639;48.674;9.242;2023-07-22T02:47:38;18.10;56.00
21502;DHT22;27639;48.674;9.242;2023-07-22T02:50:06;18.10;56.50
21502;DHT22;27639;48.674;9.242;2023-07-22T02:52:32;18.10;55.60
21502;DHT22;27639;48.674;9.242;2023-07-22T02:55:15;18.00;55.70
21502;DHT22;27639;48.674;9.242;2023-07-22T02:57:44;17.90;55.70
21502;DHT22;27639;48.674;9.242;2023-07-22T03:00:12;17.80;56.10
21502;DHT22;27639;48.674;9.242;2023-07-22T03:02:39;17.80;56.40
21502;DHT22;27639;48.674;9.242;2023-07-22T03:05:05;17.70;56.50
21502;DHT22;27639;48.674;9.242;2023-07-22T03:07:34;17.70;56.50
21502;DHT22;27639;48.674;9.242;2023-07-22T03:10:00;17.70;56.50
21502;DHT22;27639;48.674;9.242;2023-07-22T03:12:26;17.70;56.50
21502;DHT22;27639;48.674;9.242;2023-07-22T03:14:52;17.70;56.30
21502;DHT22;27639;48.674;9.242;2023-07-22T03:17:18;17.70;56.30
21502;DHT22;27639;48.674;9.242;2023-07-22T03:19:44;17.70;56.00
21502;DHT22;27639;48.674;9.242;2023-07-22T03:22:11;17.70;55.90
21502;DHT22;27639;48.674;9.242;2023-07-22T03:24:37;17.70;56.10
21502;DHT22;27639;48.674;9.242;2023-07-22T03:27:02;17.70;56.20
21502;DHT22;27639;48.674;9.242;2023-07-22T03:29:28;17.60;56.10
21502;DHT22;27639;48.674;9.242;2023-07-22T03:31:53;17.60;56.00
21502;DHT22;27639;48.674;9.242;2023-07-22T03:34:19;17.60;56.30
21502;DHT22;27639;48.674;9.242;2023-07-22T03:36:45;17.50;56.30
21502;DHT22;27639;48.674;9.242;2023-07-22T03:39:11;17.50;56.30
21502;DHT22;27639;48.674;9.242;2023-07-22T03:41:37;17.40;56.30
21502;DHT22;27639;48.674;9.242;2023-07-22T03:44:03;17.40;56.30
21502;DHT22;27639;48.674;9.242;2023-07-22T03:46:28;17.40;56.60
21502;DHT22;27639;48.674;9.242;2023-07-22T03:48:54;17.40;56.60
21502;DHT22;27639;48.674;9.242;2023-07-22T03:51:20;17.40;56.30
21502;DHT22;27639;48.674;9.242;2023-07-22T03:53:45;17.40;56.30
21502;DHT22;27639;48.674;9.242;2023-07-22T03:56:11;17.40;56.30
21502;DHT22;27639;48.674;9.242;2023-07-22T03:58:36;17.40;56.30
21502;DHT22;27639;48.674;9.242;2023-07-22T04:01:02;17.40;56.40
21502;DHT22;27639;48.674;9.242;2023-07-22T04:03:27;17.30;56.60
21502;DHT22;27639;48.674;9.242;2023-07-22T04:05:57;17.40;56.60
21502;DHT22;27639;48.674;9.242;2023-07-22T04:08:22;17.40;56.80
21502;DHT22;27639;48.674;9.242;2023-07-22T04:10:55;17.40;56.30
21502;DHT22;27639;48.674;9.242;2023-07-22T04:13:24;17.40;56.30
21502;DHT22;27639;48.674;9.242;2023-07-22T04:15:50;17.40;56.20
21502;DHT22;27639;48.674;9.242;2023-07-22T04:18:17;17.40;56.30
21502;DHT22;27639;48.674;9.242;2023-07-22T04:20:43;17.40;56.20
21502;DHT22;27639;48.674;9.242;2023-07-22T04:23:08;17.40;56.20
21502;DHT22;27639;48.674;9.242;2023-07-22T04:25:42;17.40;56.20
21502;DHT22;27639;48.674;9.242;2023-07-22T04:28:08;17.40;56.70
21502;DHT22;27639;48.674;9.242;2023-07-22T04:30:39;17.60;57.10
21502;DHT22;27639;48.674;9.242;2023-07-22T04:33:05;17.80;56.80
21502;DHT22;27639;48.674;9.242;2023-07-22T04:35:37;18.00;56.70
21502;DHT22;27639;48.674;9.242;2023-07-22T04:38:03;18.20;56.30
21502;DHT22;27639;48.674;9.242;2023-07-22T04:40:29;18.40;56.30
21502;DHT22;27639;48.674;9.242;2023-07-22T04:42:56;18.70;56.20
21502;DHT22;27639;48.674;9.242;2023-07-22T04:45:22;19.10;56.10
21502;DHT22;27639;48.674;9.242;2023-07-22T04:47:49;19.50;55.60
21502;DHT22;27639;48.674;9.242;2023-07-22T04:50:16;19.80;54.50
21502;DHT22;27639;48.674;9.242;2023-07-22T04:52:43;20.10;53.90
21502;DHT22;27639;48.674;9.242;2023-07-22T04:55:10;20.40;53.20
21502;DHT22;27639;48.674;9.242;2023-07-22T04:57:37;20.70;52.70
21502;DHT22;27639;48.674;9.242;2023-07-22T05:00:03;20.80;51.90
21502;DHT22;27639;48.674;9.242;2023-07-22T05:02:30;21.00;51.80
21502;DHT22;27639;48.674;9.242;2023-07-22T05:04:58;21.10;51.80
21502;DHT22;27639;48.674;9.242;2023-07-22T05:07:23;21.20;51.60
21502;DHT22;27639;48.674;9.242;2023-07-22T05:09:50;21.30;51.20
21502;DHT22;27639;48.674;9.242;2023-07-22T05:12:17;21.30;51.10
21502;DHT22;27639;48.674;9.242;2023-07-22T05:14:44;21.30;51.20
21502;DHT22;27639;48.674;9.242;2023-07-22T05:17:10;21.50;51.20
21502;DHT22;27639;48.674;9.242;2023-07-22T05:19:35;21.80;51.00
21502;DHT22;27639;48.674;9.242;2023-07-22T05:22:01;22.20;50.60
21502;DHT22;27639;48.674;9.242;2023-07-22T05:24:26;22.60;50.10
21502;DHT22;27639;48.674;9.242;2023-07-22T05:26:52;22.90;49.70
21502;DHT22;27639;48.674;9.242;2023-07-22T05:29:19;23.20;50.20
21502;DHT22;27639;48.674;9.242;2023-07-22T05:31:45;23.40;49.90
21502;DHT22;27639;48.674;9.242;2023-07-22T05:34:10;23.60;49.70
21502;DHT22;27639;48.674;9.242;2023-07-22T05:36:36;23.70;49.60
21502;DHT22;27639;48.674;9.242;2023-07-22T05:39:02;23.70;48.90
21502;DHT22;27639;48.674;9.242;2023-07-22T05:41:27;23.60;48.90
21502;DHT22;27639;48.674;9.242;2023-07-22T05:43:53;23.50;48.30
21502;DHT22;27639;48.674;9.242;2023-07-22T05:46:18;23.30;48.60
21502;DHT22;27639;48.674;9.242;2023-07-22T05:48:44;23.30;48.60
21502;DHT22;27639;48.674;9.242;2023-07-22T05:51:10;23.40;48.60
21502;DHT22;27639;48.674;9.242;2023-07-22T05:53:35;23.40;48.60
21502;DHT22;27639;48.674;9.242;2023-07-22T05:56:01;23.50;48.50
21502;DHT22;27639;48.674;9.242;2023-07-22T05:58:26;23.80;48.40
21502;DHT22;27639;48.674;9.242;2023-07-22T06:00:54;24.00;48.00
21502;DHT22;27639;48.674;9.242;2023-07-22T06:03:20;24.10;47.50
21502;DHT22;27639;48.674;9.242;2023-07-22T06:05:46;24.20;47.20
21502;DHT22;27639;48.674;9.242;2023-07-22T06:08:12;24.20;47.20
21502;DHT22;27639;48.674;9.242;2023-07-22T06:10:40;24.20;47.20
21502;DHT22;27639;48.674;9.242;2023-07-22T06:13:05;24.30;46.80
21502;DHT22;27639;48.674;9.242;2023-07-22T06:15:32;24.30;46.80
21502;DHT22;27639;48.674;9.242;2023-07-22T06:17:58;24.30;46.60
21502;DHT22;27639;48.674;9.242;2023-07-22T06:20:24;24.30;46.40
21502;DHT22;27639;48.674;9.242;2023-07-22T06:22:49;24.30;46.50
21502;DHT22;27639;48.674;9.242;2023-07-22T06:25:15;24.20;46.40
21502;DHT22;27639;48.674;9.242;2023-07-22T06:27:40;24.10;46.30
21502;DHT22;27639;48.674;9.242;2023-07-22T06:30:06;24.00;46.60
21502;DHT22;27639;48.674;9.242;2023-07-22T06:32:35;24.00;46.60
21502;DHT22;27639;48.674;9.242;2023-07-22T06:35:01;24.00;47.20
21502;DHT22;27639;48.674;9.242;2023-07-22T06:37:26;24.10;46.60
21502;DHT22;27639;48.674;9.242;2023-07-22T06:39:52;24.20;46.70
21502;DHT22;27639;48.674;9.242;2023-07-22T06:42:17;24.40;46.50
21502;DHT22;27639;48.674;9.242;2023-07-22T06:44:43;24.50;46.30
21502;DHT22;27639;48.674;9.242;2023-07-22T06:47:09;24.60;46.50
21502;DHT22;27639;48.674;9.242;2023-07-22T06:49:34;24.70;46.30
21502;DHT22;27639;48.674;9.242;2023-07-22T06:52:00;24.70;46.10
21502;DHT22;27639;48.674;9.242;2023-07-22T06:54:27;24.90;46.00
21502;DHT22;27639;48.674;9.242;2023-07-22T06:56:53;24.90;45.80
21502;DHT22;27639;48.674;9.242;2023-07-22T06:59:18;24.80;45.80
21502;DHT22;27639;48.674;9.242;2023-07-22T07:01:44;24.80;46.10
21502;DHT22;27639;48.674;9.242;2023-07-22T07:04:09;24.80;46.00
21502;DHT22;27639;48.674;9.242;2023-07-22T07:06:36;24.70;45.90
21502;DHT22;27639;48.674;9.242;2023-07-22T07:09:04;24.80;46.00
21502;DHT22;27639;48.674;9.242;2023-07-22T07:11:31;24.90;45.90
21502;DHT22;27639;48.674;9.242;2023-07-22T07:13:57;25.00;45.60
21502;DHT22;27639;48.674;9.242;2023-07-22T07:16:25;25.00;45.70
21502;DHT22;27639;48.674;9.242;2023-07-22T07:18:52;25.10;46.00
21502;DHT22;27639;48.674;9.242;2023-07-22T07:21:21;25.20;46.10
21502;DHT22;27639;48.674;9.242;2023-07-22T07:23:48;25.30;45.90
21502;DHT22;27639;48.674;9.242;2023-07-22T07:26:14;25.30;45.60
21502;DHT22;27639;48.674;9.242;2023-07-22T07:28:40;25.40;45.30
21502;DHT22;27639;48.674;9.242;2023-07-22T07:31:06;25.60;44.90
21502;DHT22;27639;48.674;9.242;2023-07-22T07:33:32;25.60;44.20
21502;DHT22;27639;48.674;9.242;2023-07-22T07:35:58;25.60;44.10
21502;DHT22;27639;48.674;9.242;2023-07-22T07:38:24;25.50;44.10
21502;DHT22;27639;48.674;9.242;2023-07-22T07:40:55;25.60;44.20
21502;DHT22;27639;48.674;9.242;2023-07-22T07:43:21;25.70;44.20
21502;DHT22;27639;48.674;9.242;2023-07-22T07:45:46;25.70;44.00
21502;DHT22;27639;48.674;9.242;2023-07-22T07:48:12;25.70;43.90
21502;DHT22;27639;48.674;9.242;2023-07-22T07:50:37;25.70;43.50
21502;DHT22;27639;48.674;9.242;2023-07-22T07:53:03;25.80;43.80
21502;DHT22;27639;48.674;9.242;2023-07-22T07:55:29;25.90;43.70
21502;DHT22;27639;48.674;9.242;2023-07-22T07:57:54;25.90;43.20
21502;DHT22;27639;48.674;9.242;2023-07-22T08:00:20;26.00;43.20
21502;DHT22;27639;48.674;9.242;2023-07-22T08:02:46;26.10;43.10
21502;DHT22;27639;48.674;9.242;2023-07-22T08:05:12;26.20;42.80
21502;DHT22;27639;48.674;9.242;2023-07-22T08:07:38;26.40;42.70
21502;DHT22;27639;48.674;9.242;2023-07-22T08:10:05;26.40;42.20
21502;DHT22;27639;48.674;9.242;2023-07-22T08:12:32;26.50;41.60
21502;DHT22;27639;48.674;9.242;2023-07-22T08:14:59;26.60;41.20
21502;DHT22;27639;48.674;9.242;2023-07-22T08:17:24;26.50;41.10
21502;DHT22;27639;48.674;9.242;2023-07-22T08:19:50;26.50;41.50
21502;DHT22;27639;48.674;9.242;2023-07-22T08:22:15;26.50;41.50
21502;DHT22;27639;48.674;9.242;2023-07-22T08:24:41;26.60;41.20
21502;DHT22;27639;48.674;9.242;2023-07-22T08:27:07;26.70;40.60
21502;DHT22;27639;48.674;9.242;2023-07-22T08:29:33;26.90;40.40
21502;DHT22;27639;48.674;9.242;2023-07-22T08:31:58;26.90;40.20
21502;DHT22;27639;48.674;9.242;2023-07-22T08:34:24;26.80;40.00
21502;DHT22;27639;48.674;9.242;2023-07-22T08:36:49;26.70;40.20
21502;DHT22;27639;48.674;9.242;2023-07-22T08:39:15;26.80;40.00
21502;DHT22;27639;48.674;9.242;2023-07-22T08:41:40;27.00;40.10
21502;DHT22;27639;48.674;9.242;2023-07-22T08:44:10;27.20;39.40
21502;DHT22;27639;48.674;9.242;2023-07-22T08:46:39;27.30;38.90
21502;DHT22;27639;48.674;9.242;2023-07-22T08:49:07;27.30;38.00
21502;DHT22;27639;48.674;9.242;2023-07-22T08:51:34;27.40;37.50
21502;DHT22;27639;48.674;9.242;2023-07-22T08:54:00;27.50;37.10
21502;DHT22;27639;48.674;9.242;2023-07-22T08:56:27;27.50;37.00
21502;DHT22;27639;48.674;9.242;2023-07-22T08:58:55;27.70;37.20
21502;DHT22;27639;48.674;9.242;2023-07-22T09:01:21;27.70;36.80
21502;DHT22;27639;48.674;9.242;2023-07-22T09:03:49;27.80;37.20
21502;DHT22;27639;48.674;9.242;2023-07-22T09:06:18;27.90;37.40
21502;DHT22;27639;48.674;9.242;2023-07-22T09:08:45;27.90;36.60
21502;DHT22;27639;48.674;9.242;2023-07-22T09:11:11;27.90;36.00
21502;DHT22;27639;48.674;9.242;2023-07-22T09:13:37;27.90;35.80
21502;DHT22;27639;48.674;9.242;2023-07-22T09:16:06;27.80;36.00
21502;DHT22;27639;48.674;9.242;2023-07-22T09:18:33;27.90;35.40
21502;DHT22;27639;48.674;9.242;2023-07-22T09:20:59;27.90;35.50
21502;DHT22;27639;48.674;9.242;2023-07-22T09:23:38;27.80;35.60
21502;DHT22;27639;48.674;9.242;2023-07-22T09:26:16;27.80;35.50
21502;DHT22;27639;48.674;9.242;2023-07-22T09:28:56;27.70;35.80
21502;DHT22;27639;48.674;9.242;2023-07-22T09:31:25;27.70;35.90
21502;DHT22;27639;48.674;9.242;2023-07-22T09:33:51;27.70;35.90
21502;DHT22;27639;48.674;9.242;2023-07-22T09:36:19;27.60;35.80
21502;DHT22;27639;48.674;9.242;2023-07-22T09:38:45;27.50;35.80
21502;DHT22;27639;48.674;9.242;2023-07-22T09:41:10;27.50;36.10
21502;DHT22;27639;48.674;9.242;2023-07-22T09:43:37;27.40;36.30
21502;DHT22;27639;48.674;9.242;2023-07-22T09:46:08;27.30;35.60
21502;DHT22;27639;48.674;9.242;2023-07-22T09:48:44;27.20;35.90
21502;DHT22;27639;48.674;9.242;2023-07-22T09:51:14;27.20;36.00
21502;DHT22;27639;48.674;9.242;2023-07-22T09:53:47;27.00;35.90
21502;DHT22;27639;48.674;9.242;2023-07-22T09:56:13;27.10;36.30
21502;DHT22;27639;48.674;9.242;2023-07-22T09:58:39;27.10;35.90
21502;DHT22;27639;48.674;9.242;2023-07-22T10:01:05;27.10;35.90
21502;DHT22;27639;48.674;9.242;2023-07-22T10:03:33;27.20;35.90
21502;DHT22;27639;48.674;9.242;2023-07-22T10:06:03;27.10;35.50
21502;DHT22;27639;48.674;9.242;2023-07-22T10:08:30;27.00;35.50
21502;DHT22;27639;48.674;9.242;2023-07-22T10:10:59;27.10;35.90
21502;DHT22;27639;48.674;9.242;2023-07-22T10:13:25;27.10;36.10
21502;DHT22;27639;48.674;9.242;2023-07-22T10:15:52;27.10;36.30
21502;DHT22;27639;48.674;9.242;2023-07-22T10:18:18;27.20;36.20
21502;DHT22;27639;48.674;9.242;2023-07-22T10:20:46;27.10;35.70
21502;DHT22;27639;48.674;9.242;2023-07-22T10:23:13;27.10;36.00
21502;DHT22;27639;48.674;9.242;2023-07-22T10:25:39;27.20;35.70
21502;DHT22;27639;48.674;9.242;2023-07-22T10:28:06;27.30;35.70
21502;DHT22;27639;48.674;9.242;2023-07-22T10:30:33;27.40;35.70
21502;DHT22;27639;48.674;9.242;2023-07-22T10:32:59;27.50;35.80
21502;DHT22;27639;48.674;9.242;2023-07-22T10:38:09;27.90;34.60
21502;DHT22;27639;48.674;9.242;2023-07-22T10:40:55;28.00;33.70
21502;DHT22;27639;48.674;9.242;2023-07-22T10:43:32;27.90;34.00
21502;DHT22;27639;48.674;9.242;2023-07-22T10:46:11;27.90;34.30
21502;DHT22;27639;48.674;9.242;2023-07-22T10:48:41;28.00;34.30
21502;DHT22;27639;48.674;9.242;2023-07-22T10:51:12;28.00;34.20
21502;DHT22;27639;48.674;9.242;2023-07-22T10:53:42;28.10;34.10
21502;DHT22;27639;48.674;9.242;2023-07-22T10:56:21;28.10;33.40
21502;DHT22;27639;48.674;9.242;2023-07-22T11:01:22;27.90;34.10
21502;DHT22;27639;48.674;9.242;2023-07-22T11:04:26;27.80;34.50
21502;DHT22;27639;48.674;9.242;2023-07-22T11:07:03;27.70;34.00
21502;DHT22;27639;48.674;9.242;2023-07-22T11:11:56;27.70;35.20
21502;DHT22;27639;48.674;9.242;2023-07-22T11:14:24;27.80;35.30
21502;DHT22;27639;48.674;9.242;2023-07-22T11:16:50;27.80;35.30
21502;DHT22;27639;48.674;9.242;2023-07-22T11:19:17;27.70;35.60
21502;DHT22;27639;48.674;9.242;2023-07-22T11:21:44;27.90;35.50
21502;DHT22;27639;48.674;9.242;2023-07-22T11:24:10;28.00;35.40
21502;DHT22;27639;48.674;9.242;2023-07-22T11:26:38;28.10;34.80
21502;DHT22;27639;48.674;9.242;2023-07-22T11:29:04;28.20;34.70
21502;DHT22;27639;48.674;9.242;2023-07-22T11:31:37;28.20;34.50
21502;DHT22;27639;48.674;9.242;2023-07-22T11:34:04;28.20;34.30
21502;DHT22;27639;48.674;9.242;2023-07-22T11:36:30;28.30;33.70
21502;DHT22;27639;48.674;9.242;2023-07-22T11:39:17;28.30;33.70
21502;DHT22;27639;48.674;9.242;2023-07-22T11:41:43;28.40;33.60
21502;DHT22;27639;48.674;9.242;2023-07-22T11:44:11;28.50;33.50
21502;DHT22;27639;48.674;9.242;2023-07-22T11:46:57;28.60;33.30
21502;DHT22;27639;48.674;9.242;2023-07-22T11:51:51;28.80;34.30
21502;DHT22;27639;48.674;9.242;2023-07-22T11:54:17;28.90;33.60
21502;DHT22;27639;48.674;9.242;2023-07-22T11:56:43;29.00;33.70
21502;DHT22;27639;48.674;9.242;2023-07-22T11:59:09;29.00;34.00
21502;DHT22;27639;48.674;9.242;2023-07-22T12:01:34;29.10;33.60
21502;DHT22;27639;48.674;9.242;2023-07-22T12:04:00;29.20;33.60
21502;DHT22;27639;48.674;9.242;2023-07-22T12:06:26;29.30;33.40
21502;DHT22;27639;48.674;9.242;2023-07-22T12:08:53;29.40;33.70
21502;DHT22;27639;48.674;9.242;2023-07-22T12:11:22;29.40;33.90
21502;DHT22;27639;48.674;9.242;2023-07-22T12:14:07;29.40;33.70
21502;DHT22;27639;48.674;9.242;2023-07-22T12:16:35;29.30;33.30
21502;DHT22;27639;48.674;9.242;2023-07-22T12:19:02;29.30;33.00
21502;DHT22;27639;48.674;9.242;2023-07-22T12:21:28;29.30;32.50
21502;DHT22;27639;48.674;9.242;2023-07-22T12:23:53;29.20;32.80
21502;DHT22;27639;48.674;9.242;2023-07-22T12:26:20;29.10;32.90
21502;DHT22;27639;48.674;9.242;2023-07-22T12:28:46;29.10;33.30
21502;DHT22;27639;48.674;9.242;2023-07-22T12:31:11;29.00;33.30
21502;DHT22;27639;48.674;9.242;2023-07-22T12:33:37;29.00;33.40
21502;DHT22;27639;48.674;9.242;2023-07-22T12:36:03;29.00;33.90
21502;DHT22;27639;48.674;9.242;2023-07-22T12:38:28;29.10;33.90
21502;DHT22;27639;48.674;9.242;2023-07-22T12:40:54;29.20;33.50
21502;DHT22;27639;48.674;9.242;2023-07-22T12:43:19;29.30;33.30
21502;DHT22;27639;48.674;9.242;2023-07-22T12:45:45;29.50;33.00
21502;DHT22;27639;48.674;9.242;2023-07-22T12:48:11;29.50;32.70
21502;DHT22;27639;48.674;9.242;2023-07-22T12:50:36;29.60;32.70
21502;DHT22;27639;48.674;9.242;2023-07-22T12:53:02;29.60;32.20
21502;DHT22;27639;48.674;9.242;2023-07-22T12:55:28;29.70;32.40
21502;DHT22;27639;48.674;9.242;2023-07-22T12:57:54;29.70;32.10
21502;DHT22;27639;48.674;9.242;2023-07-22T13:00:20;29.80;32.50
21502;DHT22;27639;48.674;9.242;2023-07-22T13:02:46;29.80;32.40
21502;DHT22;27639;48.674;9.242;2023-07-22T13:05:12;29.80;32.40
21502;DHT22;27639;48.674;9.242;2023-07-22T13:07:39;29.90;31.30
21502;DHT22;27639;48.674;9.242;2023-07-22T13:10:05;29.80;31.00
21502;DHT22;27639;48.674;9.242;2023-07-22T13:12:34;29.80;31.40
21502;DHT22;27639;48.674;9.242;2023-07-22T13:15:00;29.80;31.80
21502;DHT22;27639;48.674;9.242;2023-07-22T13:17:25;29.90;31.80
21502;DHT22;27639;48.674;9.242;2023-07-22T13:19:51;29.90;31.80
21502;DHT22;27639;48.674;9.242;2023-07-22T13:22:17;29.90;31.40
21502;DHT22;27639;48.674;9.242;2023-07-22T13:24:42;30.00;31.30
21502;DHT22;27639;48.674;9.242;2023-07-22T13:27:08;30.00;31.90
21502;DHT22;27639;48.674;9.242;2023-07-22T13:29:33;29.90;31.60
21502;DHT22;27639;48.674;9.242;2023-07-22T13:31:59;29.80;31.00
21502;DHT22;27639;48.674;9.242;2023-07-22T13:34:25;29.90;30.40
21502;DHT22;27639;48.674;9.242;2023-07-22T13:36:51;29.90;30.60
21502;DHT22;27639;48.674;9.242;2023-07-22T13:39:16;29.80;30.40
21502;DHT22;27639;48.674;9.242;2023-07-22T13:41:42;29.80;30.30
21502;DHT22;27639;48.674;9.242;2023-07-22T13:44:07;29.90;30.40
21502;DHT22;27639;48.674;9.242;2023-07-22T13:46:33;29.80;30.30
21502;DHT22;27639;48.674;9.242;2023-07-22T13:48:58;29.90;30.60
21502;DHT22;27639;48.674;9.242;2023-07-22T13:51:24;29.80;30.40
21502;DHT22;27639;48.674;9.242;2023-07-22T13:53:50;29.80;30.70
21502;DHT22;27639;48.674;9.242;2023-07-22T13:56:17;29.70;30.50
21502;DHT22;27639;48.674;9.242;2023-07-22T13:58:43;29.80;31.20
21502;DHT22;27639;48.674;9.242;2023-07-22T14:01:08;29.80;31.20
21502;DHT22;27639;48.674;9.242;2023-07-22T14:03:34;29.80;31.00
21502;DHT22;27639;48.674;9.242;2023-07-22T14:05:59;29.70;30.50
21502;DHT22;27639;48.674;9.242;2023-07-22T14:08:25;29.70;30.60
21502;DHT22;27639;48.674;9.242;2023-07-22T14:10:50;29.70;31.20
21502;DHT22;27639;48.674;9.242;2023-07-22T14:13:16;29.80;31.10
21502;DHT22;27639;48.674;9.242;2023-07-22T14:15:42;29.70;31.00
21502;DHT22;27639;48.674;9.242;2023-07-22T14:18:07;29.70;31.30
21502;DHT22;27639;48.674;9.242;2023-07-22T14:20:33;29.70;30.90
21502;DHT22;27639;48.674;9.242;2023-07-22T14:22:59;29.80;30.60
21502;DHT22;27639;48.674;9.242;2023-07-22T14:25:24;29.70;30.30
21502;DHT22;27639;48.674;9.242;2023-07-22T14:27:50;29.60;30.80
21502;DHT22;27639;48.674;9.242;2023-07-22T14:30:16;29.70;30.70
21502;DHT22;27639;48.674;9.242;2023-07-22T14:32:41;29.70;30.90
21502;DHT22;27639;48.674;9.242;2023-07-22T14:35:07;29.70;30.90
21502;DHT22;27639;48.674;9.242;2023-07-22T14:37:33;29.80;30.80
21502;DHT22;27639;48.674;9.242;2023-07-22T14:39:59;29.80;30.60
21502;DHT22;27639;48.674;9.242;2023-07-22T14:42:25;29.80;30.70
21502;DHT22;27639;48.674;9.242;2023-07-22T14:44:50;29.70;30.90
21502;DHT22;27639;48.674;9.242;2023-07-22T14:47:16;29.70;30.80
21502;DHT22;27639;48.674;9.242;2023-07-22T14:49:41;29.70;30.80
21502;DHT22;27639;48.674;9.242;2023-07-22T14:52:07;29.70;30.70
21502;DHT22;27639;48.674;9.242;2023-07-22T14:54:33;29.70;30.40
21502;DHT22;27639;48.674;9.242;2023-07-22T14:56:59;29.70;30.50
21502;DHT22;27639;48.674;9.242;2023-07-22T14:59:24;29.80;30.50
21502;DHT22;27639;48.674;9.242;2023-07-22T15:01:51;29.80;30.60
21502;DHT22;27639;48.674;9.242;2023-07-22T15:04:18;29.80;30.40
21502;DHT22;27639;48.674;9.242;2023-07-22T15:06:43;29.80;30.40
21502;DHT22;27639;48.674;9.242;2023-07-22T15:09:09;29.70;30.30
21502;DHT22;27639;48.674;9.242;2023-07-22T15:11:36;29.50;30.20
21502;DHT22;27639;48.674;9.242;2023-07-22T15:14:05;29.40;30.30
21502;DHT22;27639;48.674;9.242;2023-07-22T15:16:31;29.40;30.40
21502;DHT22;27639;48.674;9.242;2023-07-22T15:18:57;29.40;30.40
21502;DHT22;27639;48.674;9.242;2023-07-22T15:21:23;29.40;30.50
21502;DHT22;27639;48.674;9.242;2023-07-22T15:23:48;29.30;30.80
21502;DHT22;27639;48.674;9.242;2023-07-22T15:26:14;29.30;30.70
21502;DHT22;27639;48.674;9.242;2023-07-22T15:28:39;29.30;30.60
21502;DHT22;27639;48.674;9.242;2023-07-22T15:31:06;29.30;30.90
21502;DHT22;27639;48.674;9.242;2023-07-22T15:33:33;29.30;31.30
21502;DHT22;27639;48.674;9.242;2023-07-22T15:35:59;29.30;31.30
21502;DHT22;27639;48.674;9.242;2023-07-22T15:38:24;29.30;31.30